createdAt,value
2023-03-27T00:02:23.701Z,5.70
2023-03-27T00:04:50.759Z,5.75
2023-03-27T00:07:20.084Z,5.76
2023-03-27T00:09:47.070Z,5.79
2023-03-27T00:12:14.426Z,5.78
2023-03-27T00:14:41.576Z,5.81
2023-03-27T00:17:09.338Z,5.81
2023-03-27T00:19:36.574Z,5.84
2023-03-27T00:22:03.927Z,5.86
2023-03-27T00:24:31.065Z,5.84
2023-03-27T00:26:58.339Z,5.84
2023-03-27T00:29:25.248Z,5.82
2023-03-27T00:31:52.463Z,5.82
2023-03-27T00:34:19.535Z,5.81
2023-03-27T00:36:51.226Z,5.84
2023-03-27T00:39:19.306Z,5.86
2023-03-27T00:41:47.410Z,5.88
2023-03-27T00:44:27.046Z,5.86
2023-03-27T00:46:57.174Z,5.89
2023-03-27T00:49:28.851Z,5.91
2023-03-27T00:51:59.072Z,5.92
2023-03-27T00:54:30.202Z,5.91
2023-03-27T00:57:05.321Z,5.89
2023-03-27T00:59:36.750Z,5.88
2023-03-27T01:02:04.896Z,5.88
2023-03-27T01:04:33.833Z,5.87
2023-03-27T01:07:01.026Z,5.81
2023-03-27T01:09:27.975Z,5.82
2023-03-27T01:12:07.271Z,5.78
2023-03-27T01:14:40.406Z,5.76
2023-03-27T01:17:16.872Z,5.74
2023-03-27T01:19:53.966Z,5.72
2023-03-27T01:22:55.555Z,5.68
2023-03-27T01:25:54.960Z,5.66
2023-03-27T01:28:43.880Z,5.67
2023-03-27T01:31:32.436Z,5.65
2023-03-27T01:34:02.480Z,5.65
2023-03-27T01:36:32.205Z,5.67
2023-03-27T01:39:05.516Z,5.65
2023-03-27T01:41:43.728Z,5.64
2023-03-27T01:44:25.289Z,5.61
2023-03-27T01:47:22.170Z,5.62
2023-03-27T01:49:55.643Z,5.56
2023-03-27T01:52:29.429Z,5.58
2023-03-27T01:55:05.031Z,5.59
2023-03-27T01:57:49.188Z,5.55
2023-03-27T02:00:22.611Z,5.54
2023-03-27T02:03:02.450Z,5.55
2023-03-27T02:05:36.638Z,5.55
2023-03-27T02:08:21.424Z,5.52
2023-03-27T02:10:53.795Z,5.54
2023-03-27T02:13:30.580Z,5.54
2023-03-27T02:16:00.130Z,5.51
2023-03-27T02:18:36.025Z,5.48
2023-03-27T02:21:04.275Z,5.45
2023-03-27T02:23:31.137Z,5.44
2023-03-27T02:25:59.775Z,5.42
2023-03-27T02:28:49.256Z,5.41
2023-03-27T02:31:36.511Z,5.40
2023-03-27T02:34:15.462Z,5.42
2023-03-27T02:37:04.043Z,5.42
2023-03-27T02:39:52.289Z,5.39
2023-03-27T02:42:41.824Z,5.41
2023-03-27T02:45:16.797Z,5.43
2023-03-27T02:47:54.888Z,5.45
2023-03-27T02:50:38.300Z,5.45
2023-03-27T02:53:08.863Z,5.49
2023-03-27T02:55:40.415Z,5.49
2023-03-27T02:58:13.493Z,5.46
2023-03-27T03:00:48.891Z,5.45
2023-03-27T03:03:21.084Z,5.46
2023-03-27T03:05:48.194Z,5.46
2023-03-27T03:08:15.674Z,5.45
2023-03-27T03:10:44.962Z,5.46
2023-03-27T03:13:12.354Z,5.50
2023-03-27T03:15:39.362Z,5.51
2023-03-27T03:18:07.715Z,5.51
2023-03-27T03:20:35.522Z,5.53
2023-03-27T03:23:02.938Z,5.55
2023-03-27T03:25:31.398Z,5.57
2023-03-27T03:28:01.541Z,5.59
2023-03-27T03:30:30.461Z,5.60
2023-03-27T03:32:57.882Z,5.56
2023-03-27T03:35:25.857Z,5.62
2023-03-27T03:37:53.210Z,5.67
2023-03-27T03:40:21.081Z,5.71
2023-03-27T03:42:50.549Z,5.73
2023-03-27T03:45:17.749Z,5.71
2023-03-27T03:47:45.844Z,5.74
2023-03-27T03:50:13.318Z,5.75
2023-03-27T03:52:41.813Z,5.78
2023-03-27T03:55:12.050Z,5.79
2023-03-27T03:57:39.433Z,5.79
2023-03-27T04:00:08.849Z,5.80
2023-03-27T04:02:37.244Z,5.78
2023-03-27T04:05:08.441Z,5.78
2023-03-27T04:07:36.351Z,5.76
2023-03-27T04:10:04.141Z,5.76
2023-03-27T04:12:31.573Z,5.75
2023-03-27T04:14:58.523Z,5.72
2023-03-27T04:17:28.822Z,5.74
2023-03-27T04:19:55.788Z,5.72
2023-03-27T04:22:23.415Z,5.72
2023-03-27T04:24:50.732Z,5.69
2023-03-27T04:27:18.227Z,5.68
2023-03-27T04:29:47.496Z,5.70
2023-03-27T04:32:19.430Z,5.71
2023-03-27T04:34:47.278Z,5.71
2023-03-27T04:37:14.742Z,5.71
2023-03-27T04:39:46.339Z,5.70
2023-03-27T04:42:16.892Z,5.71
2023-03-27T04:44:46.565Z,5.73
2023-03-27T04:47:14.519Z,5.74
2023-03-27T04:49:43.771Z,5.77
2023-03-27T04:52:14.197Z,5.78
2023-03-27T04:54:42.140Z,5.80
2023-03-27T04:57:10.113Z,5.80
2023-03-27T04:59:37.705Z,5.84
2023-03-27T05:02:06.544Z,5.88
2023-03-27T05:04:33.691Z,5.92
2023-03-27T05:07:02.689Z,5.97
2023-03-27T05:09:29.579Z,6.01
2023-03-27T05:11:56.772Z,6.09
2023-03-27T05:14:24.009Z,6.14
2023-03-27T05:16:52.522Z,6.19
2023-03-27T05:19:20.241Z,6.27
2023-03-27T05:21:48.064Z,6.34
2023-03-27T05:24:15.929Z,6.38
2023-03-27T05:26:43.531Z,6.48
2023-03-27T05:29:10.604Z,6.52
2023-03-27T05:31:38.406Z,6.61
2023-03-27T05:34:05.929Z,6.64
2023-03-27T05:36:33.301Z,6.69
2023-03-27T05:39:00.128Z,6.76
2023-03-27T05:41:27.756Z,6.80
2023-03-27T05:43:54.631Z,6.90
2023-03-27T05:46:22.477Z,6.98
2023-03-27T05:48:49.648Z,7.01
2023-03-27T05:51:17.588Z,7.03
2023-03-27T05:53:44.515Z,7.01
2023-03-27T05:56:12.052Z,6.99
2023-03-27T05:58:39.009Z,6.98
2023-03-27T06:01:06.300Z,6.97
2023-03-27T06:03:36.715Z,6.98
2023-03-27T06:06:08.776Z,6.99
2023-03-27T06:08:36.738Z,7.02
2023-03-27T06:11:14.030Z,7.04
2023-03-27T06:13:41.596Z,7.08
2023-03-27T06:16:09.174Z,7.05
2023-03-27T06:18:36.666Z,7.07
2023-03-27T06:21:04.257Z,7.08
2023-03-27T06:23:32.038Z,7.12
2023-03-27T06:25:59.589Z,7.13
2023-03-27T06:28:26.553Z,7.21
2023-03-27T06:30:53.725Z,7.28
2023-03-27T06:33:20.688Z,7.34
2023-03-27T06:35:53.512Z,7.42
2023-03-27T06:38:21.276Z,7.52
2023-03-27T06:40:48.499Z,7.55
2023-03-27T06:43:19.036Z,7.58
2023-03-27T06:45:49.261Z,7.57
2023-03-27T06:48:20.566Z,7.48
2023-03-27T06:50:51.223Z,7.45
2023-03-27T06:53:27.309Z,7.44
2023-03-27T06:55:56.865Z,7.49
2023-03-27T06:58:24.454Z,7.52
2023-03-27T07:00:51.767Z,7.57
2023-03-27T07:03:21.741Z,7.61
2023-03-27T07:05:49.743Z,7.59
2023-03-27T07:08:24.452Z,7.55
2023-03-27T07:11:10.862Z,7.52
2023-03-27T07:13:41.254Z,7.49
2023-03-27T07:16:12.246Z,7.43
2023-03-27T07:18:39.693Z,7.35
2023-03-27T07:21:08.394Z,7.25
2023-03-27T07:23:35.869Z,7.20
2023-03-27T07:26:03.413Z,7.18
2023-03-27T07:28:30.624Z,7.19
2023-03-27T07:30:58.049Z,7.23
2023-03-27T07:33:25.323Z,7.31
2023-03-27T07:35:52.753Z,7.39
2023-03-27T07:38:20.023Z,7.45
2023-03-27T07:40:47.239Z,7.46
2023-03-27T07:43:14.369Z,7.47
2023-03-27T07:45:42.348Z,7.54
2023-03-27T07:48:12.021Z,7.60
2023-03-27T07:50:39.589Z,7.68
2023-03-27T07:53:06.780Z,7.76
2023-03-27T07:55:37.718Z,7.82
2023-03-27T07:58:06.993Z,7.90
2023-03-27T08:00:36.085Z,7.97
2023-03-27T08:03:08.235Z,7.99
2023-03-27T08:05:37.201Z,8.04
2023-03-27T08:08:05.132Z,8.06
2023-03-27T08:10:32.789Z,8.10
2023-03-27T08:12:59.750Z,8.13
2023-03-27T08:15:27.026Z,8.17
2023-03-27T08:17:55.408Z,8.20
2023-03-27T08:20:24.123Z,8.24
2023-03-27T08:22:52.865Z,8.25
2023-03-27T08:25:22.685Z,8.28
2023-03-27T08:27:50.748Z,8.28
2023-03-27T08:30:19.188Z,8.32
2023-03-27T08:32:46.451Z,8.33
2023-03-27T08:35:13.750Z,8.36
2023-03-27T08:37:41.671Z,8.40
2023-03-27T08:40:19.734Z,8.44
2023-03-27T08:42:52.847Z,8.44
2023-03-27T08:45:48.195Z,8.39
2023-03-27T08:48:22.194Z,8.41
2023-03-27T08:50:54.793Z,8.41
2023-03-27T08:53:30.919Z,8.38
2023-03-27T08:55:58.642Z,8.40
2023-03-27T08:58:26.857Z,8.37
2023-03-27T09:01:01.288Z,8.31
2023-03-27T09:03:35.861Z,8.30
2023-03-27T09:06:11.647Z,8.29
2023-03-27T09:09:22.096Z,8.31
2023-03-27T09:12:06.786Z,8.35
2023-03-27T09:14:38.770Z,8.39
2023-03-27T09:17:19.044Z,8.44
2023-03-27T09:20:10.795Z,8.50
2023-03-27T09:22:44.291Z,8.55
2023-03-27T09:25:19.279Z,8.59
2023-03-27T09:27:48.621Z,8.64
2023-03-27T09:30:22.622Z,8.68
2023-03-27T09:32:54.170Z,8.77
2023-03-27T09:35:22.386Z,8.82
2023-03-27T09:37:59.101Z,8.86
2023-03-27T09:40:33.963Z,8.93
2023-03-27T09:43:08.631Z,8.99
2023-03-27T09:45:39.297Z,9.06
2023-03-27T09:48:14.567Z,9.09
2023-03-27T09:50:47.550Z,9.12
2023-03-27T09:53:21.668Z,9.15
2023-03-27T09:55:53.053Z,9.15
2023-03-27T09:58:30.083Z,9.08
2023-03-27T10:01:16.982Z,9.02
2023-03-27T10:03:53.235Z,8.98
2023-03-27T10:06:45.112Z,8.92
2023-03-27T10:09:27.898Z,8.86
2023-03-27T10:12:08.315Z,8.76
2023-03-27T10:14:45.124Z,8.59
2023-03-27T10:17:36.862Z,8.49
2023-03-27T10:20:11.248Z,8.48
2023-03-27T10:22:52.589Z,8.47
2023-03-27T10:25:29.657Z,8.47
2023-03-27T10:28:24.027Z,8.46
2023-03-27T10:31:00.209Z,8.48
2023-03-27T10:33:38.262Z,8.48
2023-03-27T10:36:08.564Z,8.53
2023-03-27T10:38:38.228Z,8.53
2023-03-27T10:41:15.585Z,8.47
2023-03-27T10:43:57.529Z,8.46
2023-03-27T10:46:29.157Z,8.37
2023-03-27T10:49:31.777Z,8.35
2023-03-27T10:51:58.939Z,8.37
2023-03-27T10:54:54.638Z,8.40
2023-03-27T10:57:29.132Z,8.49
2023-03-27T11:00:11.834Z,8.47
2023-03-27T11:02:48.269Z,8.53
2023-03-27T11:05:21.381Z,8.59
2023-03-27T11:08:16.218Z,8.63
2023-03-27T11:10:48.241Z,8.64
2023-03-27T11:13:17.562Z,8.64
2023-03-27T11:15:54.281Z,8.58
2023-03-27T11:18:30.053Z,8.57
2023-03-27T11:21:01.673Z,8.58
2023-03-27T11:23:48.487Z,8.58
2023-03-27T11:26:17.034Z,8.62
2023-03-27T11:28:48.689Z,8.55
2023-03-27T11:31:48.532Z,8.48
2023-03-27T11:34:42.774Z,8.42
2023-03-27T11:37:21.846Z,8.43
2023-03-27T11:39:56.123Z,8.42
2023-03-27T11:42:27.168Z,8.41
2023-03-27T11:44:55.290Z,8.40
2023-03-27T11:47:48.739Z,8.36
2023-03-27T11:50:37.532Z,8.36
2023-03-27T11:53:19.303Z,8.29
2023-03-27T11:56:22.585Z,8.23
2023-03-27T11:59:22.520Z,8.14
2023-03-27T12:02:02.201Z,8.07
2023-03-27T12:04:48.555Z,8.05
2023-03-27T12:07:40.432Z,8.01
2023-03-27T12:10:11.627Z,8.03
2023-03-27T12:13:00.849Z,8.00
2023-03-27T12:15:36.873Z,8.01
2023-03-27T12:18:16.208Z,8.03
2023-03-27T12:20:55.004Z,8.03
2023-03-27T12:23:45.945Z,8.08
2023-03-27T12:26:18.854Z,8.01
2023-03-27T12:29:23.091Z,7.87
2023-03-27T12:31:57.038Z,7.72
2023-03-27T12:34:50.342Z,7.60
2023-03-27T12:37:22.272Z,7.54
2023-03-27T12:39:54.385Z,7.45
2023-03-27T12:42:44.021Z,7.38
2023-03-27T12:45:22.569Z,7.37
2023-03-27T12:48:11.029Z,7.33
2023-03-27T12:50:44.371Z,7.28
2023-03-27T12:53:26.909Z,7.25
2023-03-27T12:56:30.244Z,7.18
2023-03-27T12:58:57.763Z,7.12
2023-03-27T13:01:59.674Z,6.99
2023-03-27T13:05:08.624Z,6.96
2023-03-27T13:07:58.391Z,6.92
2023-03-27T13:10:40.737Z,6.95
2023-03-27T13:13:26.111Z,6.94
2023-03-27T13:15:53.118Z,6.99
2023-03-27T13:18:51.709Z,6.98
2023-03-27T13:21:40.841Z,6.97
2023-03-27T13:24:10.757Z,6.87
2023-03-27T13:26:52.726Z,6.81
2023-03-27T13:29:31.993Z,6.72
2023-03-27T13:32:00.731Z,6.64
2023-03-27T13:34:37.162Z,6.60
2023-03-27T13:37:11.275Z,6.54
2023-03-27T13:39:41.605Z,6.45
2023-03-27T13:42:21.318Z,6.37
2023-03-27T13:45:04.100Z,6.24
2023-03-27T13:47:33.762Z,6.19
2023-03-27T13:50:41.675Z,6.10
2023-03-27T13:53:26.524Z,6.09
2023-03-27T13:56:18.367Z,6.03
2023-03-27T13:59:03.270Z,5.95
2023-03-27T14:01:42.214Z,5.92
2023-03-27T14:04:34.148Z,5.88
2023-03-27T14:07:26.779Z,5.83
2023-03-27T14:10:31.228Z,5.72
2023-03-27T14:13:03.549Z,5.64
2023-03-27T14:15:57.605Z,5.58
2023-03-27T14:18:30.897Z,5.56
2023-03-27T14:21:02.263Z,5.53
2023-03-27T14:23:56.204Z,5.49
2023-03-27T14:26:25.644Z,5.47
2023-03-27T14:28:59.194Z,5.41
2023-03-27T14:31:28.913Z,5.40
2023-03-27T14:34:08.239Z,5.36
2023-03-27T14:36:42.429Z,5.31
2023-03-27T14:39:16.513Z,5.29
2023-03-27T14:41:56.989Z,5.23
2023-03-27T14:44:26.095Z,5.27
2023-03-27T14:47:15.366Z,5.23
2023-03-27T14:49:47.519Z,5.27
2023-03-27T14:52:30.833Z,5.28
2023-03-27T14:54:59.553Z,5.30
2023-03-27T14:57:28.364Z,5.30
2023-03-27T14:59:56.687Z,5.29
2023-03-27T15:02:30.575Z,5.28
2023-03-27T15:05:04.886Z,5.25
2023-03-27T15:07:36.180Z,5.23
2023-03-27T15:10:06.492Z,5.18
2023-03-27T15:12:37.077Z,5.13
2023-03-27T15:15:21.864Z,5.03
2023-03-27T15:17:50.794Z,4.97
2023-03-27T15:20:19.218Z,4.87
2023-03-27T15:23:01.477Z,4.81
2023-03-27T15:25:44.678Z,4.72
2023-03-27T15:28:29.667Z,4.61
2023-03-27T15:31:00.950Z,4.56
2023-03-27T15:33:37.537Z,4.47
2023-03-27T15:36:11.143Z,4.37
2023-03-27T15:38:39.717Z,4.25
2023-03-27T15:41:09.945Z,4.12
2023-03-27T15:43:36.814Z,4.06
2023-03-27T15:46:19.208Z,3.95
2023-03-27T15:48:50.937Z,3.83
2023-03-27T15:51:21.212Z,3.75
2023-03-27T15:53:51.021Z,3.68
2023-03-27T15:56:26.350Z,3.56
2023-03-27T15:59:04.518Z,3.49
2023-03-27T16:02:03.827Z,3.39
2023-03-27T16:04:55.832Z,3.25
2023-03-27T16:07:25.384Z,3.20
2023-03-27T16:09:56.440Z,3.12
2023-03-27T16:12:31.794Z,3.03
2023-03-27T16:15:00.910Z,2.94
2023-03-27T16:17:37.653Z,2.80
2023-03-27T16:20:12.102Z,2.73
2023-03-27T16:22:40.115Z,2.70
2023-03-27T16:25:11.911Z,2.63
2023-03-27T16:27:48.425Z,2.56
2023-03-27T16:30:27.776Z,2.42
2023-03-27T16:32:55.950Z,2.32
2023-03-27T16:35:23.065Z,2.23
2023-03-27T16:37:50.380Z,2.17
2023-03-27T16:40:17.420Z,2.08
2023-03-27T16:42:44.628Z,2.03
2023-03-27T16:45:11.712Z,1.96
2023-03-27T16:47:41.537Z,1.87
2023-03-27T16:50:17.738Z,1.81
2023-03-27T16:52:44.953Z,1.67
2023-03-27T16:55:14.003Z,1.52
2023-03-27T16:57:42.305Z,1.45
2023-03-27T17:00:11.058Z,1.41
2023-03-27T17:02:38.525Z,1.29
2023-03-27T17:05:08.208Z,1.24
2023-03-27T17:07:36.122Z,1.14
2023-03-27T17:10:04.504Z,1.07
2023-03-27T17:12:32.382Z,0.99
2023-03-27T17:14:59.373Z,0.89
2023-03-27T17:17:27.809Z,0.83
2023-03-27T17:19:54.775Z,0.76
2023-03-27T17:22:21.889Z,0.69
2023-03-27T17:24:56.131Z,0.68
2023-03-27T17:27:26.788Z,0.66
2023-03-27T17:29:56.161Z,0.64
2023-03-27T17:32:27.100Z,0.61
2023-03-27T17:34:54.221Z,0.61
2023-03-27T17:37:22.364Z,0.59
2023-03-27T17:39:49.473Z,0.60
2023-03-27T17:42:18.257Z,0.60
2023-03-27T17:44:45.569Z,0.62
2023-03-27T17:47:13.460Z,0.65
2023-03-27T17:49:41.165Z,0.66
2023-03-27T17:52:11.399Z,0.65
2023-03-27T17:54:38.992Z,0.65
2023-03-27T17:57:06.415Z,0.67
2023-03-27T17:59:33.738Z,0.69
2023-03-27T18:02:01.849Z,0.69
2023-03-27T18:04:29.678Z,0.73
2023-03-27T18:06:57.079Z,0.71
2023-03-27T18:09:25.086Z,0.68
2023-03-27T18:11:52.340Z,0.72
2023-03-27T18:14:19.227Z,0.71
2023-03-27T18:16:46.411Z,0.70
2023-03-27T18:19:14.616Z,0.68
2023-03-27T18:21:42.485Z,0.70
2023-03-27T18:24:09.548Z,0.64
2023-03-27T18:26:36.958Z,0.65
2023-03-27T18:29:05.055Z,0.63
2023-03-27T18:31:32.522Z,0.62
2023-03-27T18:33:59.457Z,0.65
2023-03-27T18:36:27.380Z,0.67
2023-03-27T18:38:54.270Z,0.68
2023-03-27T18:41:21.400Z,0.69
2023-03-27T18:43:48.257Z,0.71
2023-03-27T18:46:17.259Z,0.72
2023-03-27T18:48:46.003Z,0.74
2023-03-27T18:51:13.388Z,0.78
2023-03-27T18:53:40.842Z,0.82
2023-03-27T18:56:08.282Z,0.86
2023-03-27T18:58:36.013Z,0.91
2023-03-27T19:01:09.153Z,0.94
2023-03-27T19:03:37.195Z,0.96
2023-03-27T19:06:06.501Z,0.98
2023-03-27T19:08:37.580Z,1.01
2023-03-27T19:11:06.231Z,1.01
2023-03-27T19:13:33.289Z,1.01
2023-03-27T19:16:00.911Z,1.00
2023-03-27T19:18:30.286Z,1.00
2023-03-27T19:21:00.910Z,1.01
2023-03-27T19:23:28.508Z,1.01
2023-03-27T19:25:56.274Z,1.02
2023-03-27T19:28:23.236Z,1.01
2023-03-27T19:30:52.933Z,1.02
2023-03-27T19:33:20.075Z,1.01
2023-03-27T19:35:51.810Z,0.97
2023-03-27T19:38:18.824Z,0.99
2023-03-27T19:40:46.028Z,0.98
2023-03-27T19:43:13.866Z,0.96
2023-03-27T19:45:47.155Z,0.93
2023-03-27T19:48:14.104Z,0.93
2023-03-27T19:50:41.497Z,0.87
2023-03-27T19:53:09.203Z,0.84
2023-03-27T19:55:37.529Z,0.81
2023-03-27T19:58:04.414Z,0.77
2023-03-27T20:00:32.300Z,0.74
2023-03-27T20:02:59.687Z,0.69
2023-03-27T20:05:27.749Z,0.67
2023-03-27T20:07:54.647Z,0.64
2023-03-27T20:10:22.547Z,0.64
2023-03-27T20:12:49.553Z,0.64
2023-03-27T20:15:16.956Z,0.64
2023-03-27T20:17:43.945Z,0.61
2023-03-27T20:20:11.707Z,0.58
2023-03-27T20:22:50.105Z,0.57
2023-03-27T20:25:24.463Z,0.55
2023-03-27T20:27:51.427Z,0.56
2023-03-27T20:30:18.816Z,0.55
2023-03-27T20:32:45.887Z,0.51
2023-03-27T20:35:23.564Z,0.50
2023-03-27T20:37:57.828Z,0.49
2023-03-27T20:40:26.261Z,0.46
2023-03-27T20:43:03.619Z,0.45
2023-03-27T20:45:31.428Z,0.44
2023-03-27T20:48:03.967Z,0.45
2023-03-27T20:50:35.288Z,0.40
2023-03-27T20:53:04.527Z,0.38
2023-03-27T20:55:34.828Z,0.39
2023-03-27T20:58:06.715Z,0.38
2023-03-27T21:00:34.714Z,0.36
2023-03-27T21:03:02.045Z,0.38
2023-03-27T21:05:29.341Z,0.39
2023-03-27T21:07:56.575Z,0.37
2023-03-27T21:10:25.020Z,0.37
2023-03-27T21:12:53.739Z,0.39
2023-03-27T21:15:20.882Z,0.34
2023-03-27T21:17:47.823Z,0.33
2023-03-27T21:20:15.668Z,0.33
2023-03-27T21:22:42.626Z,0.29
2023-03-27T21:25:09.946Z,0.27
2023-03-27T21:27:37.510Z,0.24
2023-03-27T21:30:05.889Z,0.24
2023-03-27T21:32:32.832Z,0.21
2023-03-27T21:35:00.030Z,0.18
2023-03-27T21:37:26.891Z,0.13
2023-03-27T21:39:54.086Z,0.14
2023-03-27T21:42:21.925Z,0.13
2023-03-27T21:44:53.657Z,0.11
2023-03-27T21:47:22.756Z,0.13
2023-03-27T21:49:49.961Z,0.10
2023-03-27T21:52:16.881Z,0.08
2023-03-27T21:54:53.155Z,0.09
2023-03-27T21:57:29.251Z,0.09
2023-03-27T21:59:56.503Z,0.08
2023-03-27T22:02:23.359Z,0.11
2023-03-27T22:04:50.737Z,0.07
2023-03-27T22:07:17.652Z,0.06
2023-03-27T22:09:45.396Z,0.03
2023-03-27T22:12:13.107Z,-0.02
2023-03-27T22:14:40.501Z,-0.02
2023-03-27T22:17:07.682Z,-0.07
2023-03-27T22:19:34.998Z,-0.12
2023-03-27T22:22:02.353Z,-0.18
2023-03-27T22:24:29.611Z,-0.16
2023-03-27T22:26:57.103Z,-0.19
2023-03-27T22:29:24.396Z,-0.23
2023-03-27T22:31:51.884Z,-0.24
2023-03-27T22:34:18.993Z,-0.27
2023-03-27T22:36:45.936Z,-0.28
2023-03-27T22:39:13.117Z,-0.31
2023-03-27T22:41:40.100Z,-0.30
2023-03-27T22:44:07.295Z,-0.29
2023-03-27T22:46:34.429Z,-0.34
2023-03-27T22:49:01.640Z,-0.33
2023-03-27T22:51:30.373Z,-0.33
2023-03-27T22:53:57.658Z,-0.35
2023-03-27T22:56:24.771Z,-0.34
2023-03-27T22:58:51.966Z,-0.32
2023-03-27T23:01:18.919Z,-0.32
2023-03-27T23:03:46.296Z,-0.30
2023-03-27T23:06:18.999Z,-0.29
2023-03-27T23:08:48.571Z,-0.28
2023-03-27T23:11:16.235Z,-0.27
2023-03-27T23:13:43.949Z,-0.24
2023-03-27T23:16:11.423Z,-0.26
2023-03-27T23:18:39.013Z,-0.24
2023-03-27T23:21:12.081Z,-0.28
2023-03-27T23:23:40.581Z,-0.26
2023-03-27T23:26:08.264Z,-0.26
2023-03-27T23:28:38.635Z,-0.26
2023-03-27T23:31:20.240Z,-0.26
2023-03-27T23:33:50.798Z,-0.30
2023-03-27T23:36:23.372Z,-0.32
2023-03-27T23:38:51.777Z,-0.31
2023-03-27T23:41:19.299Z,-0.28
2023-03-27T23:43:46.697Z,-0.30
2023-03-27T23:46:14.197Z,-0.35
2023-03-27T23:48:43.028Z,-0.40
2023-03-27T23:51:11.470Z,-0.48
2023-03-27T23:53:38.669Z,-0.55
2023-03-27T23:56:05.877Z,-0.62
2023-03-27T23:58:33.371Z,-0.67
